Time;durP1;ratioP1;P1;durP2;ratioP2;P2;SDS_P1;SDS_P2;PMS_P1;PMS_P2;Temp;Humidity;BMP_temperature;BMP_pressure;BME280_temperature;BME280_humidity;BME280_pressure;Samples;Min_cycle;Max_cycle;Signal;HPM_P1;HPM_P2
2022/05/05 00:01:04;;;;;;;0.40;0.20;;;11.60;99.90;;;;;;4991002;28;20433;-69
2022/05/05 00:03:29;;;;;;;0.40;0.40;;;11.60;99.90;;;;;;4991296;28;20390;-69
2022/05/05 00:05:55;;;;;;;0.40;0.20;;;11.60;99.90;;;;;;4991449;28;20383;-70
2022/05/05 00:08:21;;;;;;;0.40;0.22;;;11.50;99.90;;;;;;4992314;28;20954;-68
2022/05/05 00:16:15;;;;;;;0.50;0.50;;;11.40;99.90;;;;;;4994367;28;20386;-70
2022/05/05 00:18:40;;;;;;;1.50;1.30;;;11.40;99.90;;;;;;4995345;28;20386;-68
2022/05/05 00:21:06;;;;;;;0.40;0.30;;;11.40;99.90;;;;;;4994654;28;20894;-69
2022/05/05 00:23:32;;;;;;;0.40;0.30;;;11.50;99.90;;;;;;4995143;28;20393;-69
2022/05/05 00:25:58;;;;;;;0.40;0.30;;;11.40;99.90;;;;;;4994298;28;20537;-69
2022/05/05 00:28:23;;;;;;;0.40;0.20;;;11.30;99.90;;;;;;4976875;28;20394;-68
2022/05/05 00:30:49;;;;;;;0.40;0.40;;;11.30;99.90;;;;;;4994876;28;20473;-69
2022/05/05 00:33:14;;;;;;;0.40;0.30;;;11.30;99.90;;;;;;4994041;28;20402;-69
2022/05/05 00:35:40;;;;;;;0.40;0.20;;;11.50;99.90;;;;;;4994950;28;20386;-68
2022/05/05 00:38:06;;;;;;;0.40;0.40;;;11.40;99.90;;;;;;4994636;28;20390;-69
2022/05/05 00:40:31;;;;;;;0.60;0.50;;;11.40;99.90;;;;;;4994114;28;20539;-68
2022/05/05 00:43:02;;;;;;;0.50;0.50;;;11.40;99.90;;;;;;4994549;28;20402;-69
2022/05/05 00:45:28;;;;;;;0.40;0.30;;;11.40;99.90;;;;;;4993971;28;20394;-69
2022/05/05 00:48:03;;;;;;;1.20;0.80;;;11.30;99.90;;;;;;4994486;28;20379;-69
2022/05/05 00:50:31;;;;;;;0.40;0.25;;;11.40;99.90;;;;;;4993740;28;20655;-69
2022/05/05 00:52:57;;;;;;;0.40;0.20;;;11.40;99.90;;;;;;4994900;28;20418;-69
2022/05/05 00:55:22;;;;;;;0.40;0.20;;;11.40;99.90;;;;;;4993733;28;20450;-69
2022/05/05 00:57:48;;;;;;;0.40;0.40;;;11.40;99.90;;;;;;4994932;28;20422;-69
2022/05/05 01:00:14;;;;;;;0.40;0.20;;;11.40;99.90;;;;;;4982914;28;20419;-69
2022/05/05 01:02:40;;;;;;;0.40;0.20;;;11.50;99.90;;;;;;4974757;28;20860;-68
2022/05/05 01:05:07;;;;;;;1.00;0.80;;;11.50;99.90;;;;;;4974763;28;20443;-68
2022/05/05 01:07:33;;;;;;;0.40;0.20;;;11.40;99.90;;;;;;4974173;28;20416;-68
2022/05/05 01:10:00;;;;;;;0.50;0.50;;;11.40;99.90;;;;;;4975698;28;20466;-68
2022/05/05 01:12:31;;;;;;;0.40;0.30;;;11.50;99.90;;;;;;4993499;28;20866;-68
2022/05/05 01:14:59;;;;;;;0.40;0.20;;;11.40;99.90;;;;;;4994157;28;20389;-68
2022/05/05 01:17:26;;;;;;;0.40;0.20;;;11.40;99.90;;;;;;4993408;28;20746;-69
2022/05/05 01:19:52;;;;;;;0.80;0.70;;;11.40;99.90;;;;;;4992734;28;20494;-68
2022/05/05 01:22:18;;;;;;;0.50;0.50;;;11.40;99.90;;;;;;4993393;28;20735;-68
2022/05/05 01:30:13;;;;;;;0.40;0.30;;;11.40;99.90;;;;;;4988252;28;20409;-68
2022/05/05 01:32:38;;;;;;;0.40;0.20;;;11.40;99.90;;;;;;4979508;28;20791;-68
2022/05/05 01:35:04;;;;;;;0.40;0.20;;;11.20;99.90;;;;;;4974118;28;20446;-68
2022/05/05 01:37:31;;;;;;;0.40;0.20;;;11.30;99.90;;;;;;4973652;28;20589;-69
2022/05/05 01:39:57;;;;;;;0.40;0.20;;;11.20;99.90;;;;;;4956481;28;20423;-68
2022/05/05 01:42:23;;;;;;;3.20;1.30;;;11.20;99.90;;;;;;4973591;28;20392;-68
2022/05/05 01:44:48;;;;;;;0.40;0.20;;;11.20;99.90;;;;;;4973731;28;20396;-68
2022/05/05 01:47:14;;;;;;;0.40;0.20;;;11.20;99.90;;;;;;4973200;28;20877;-68
2022/05/05 01:49:40;;;;;;;1.20;1.10;;;11.20;99.90;;;;;;4974114;28;20389;-68
2022/05/05 01:52:09;;;;;;;0.40;0.40;;;11.20;99.90;;;;;;4974443;28;20400;-68
2022/05/05 01:54:34;;;;;;;0.40;0.20;;;11.10;99.90;;;;;;4973084;28;20454;-68
2022/05/05 01:57:00;;;;;;;0.40;0.20;;;11.10;99.90;;;;;;4993334;28;20477;-67
2022/05/05 01:59:26;;;;;;;0.40;0.30;;;11.10;99.90;;;;;;4991991;28;20398;-68
2022/05/05 02:01:52;;;;;;;0.40;0.20;;;11.00;99.90;;;;;;4991854;28;20421;-68
2022/05/05 02:04:17;;;;;;;0.40;0.20;;;10.90;99.90;;;;;;4992457;28;20382;-69
2022/05/05 02:06:43;;;;;;;0.40;0.30;;;11.00;99.90;;;;;;4992859;28;20701;-68
2022/05/05 02:09:08;;;;;;;0.40;0.30;;;10.90;99.90;;;;;;4993162;28;20859;-68
2022/05/05 02:11:37;;;;;;;0.60;0.60;;;10.90;99.90;;;;;;4992113;28;20956;-68
2022/05/05 02:14:03;;;;;;;0.40;0.30;;;10.90;99.90;;;;;;4976306;28;20383;-68
2022/05/05 02:16:29;;;;;;;0.40;0.20;;;11.00;99.90;;;;;;4992134;28;20406;-68
2022/05/05 02:18:55;;;;;;;0.40;0.20;;;11.00;99.90;;;;;;4992071;28;20747;-68
2022/05/05 02:21:20;;;;;;;0.40;0.30;;;11.00;99.90;;;;;;4992131;28;20406;-67
2022/05/05 02:23:46;;;;;;;0.50;0.50;;;11.10;99.90;;;;;;4992791;28;20482;-68
2022/05/05 02:26:12;;;;;;;0.40;0.27;;;11.10;99.90;;;;;;4992393;28;20855;-67
2022/05/05 02:28:37;;;;;;;0.40;0.20;;;11.00;99.90;;;;;;4991994;28;20395;-68
2022/05/05 02:31:03;;;;;;;0.40;0.30;;;11.00;99.90;;;;;;4992117;28;20390;-68
2022/05/05 02:33:28;;;;;;;0.40;0.40;;;10.90;99.90;;;;;;4991328;28;20398;-68
2022/05/05 02:38:44;;;;;;;0.50;0.50;;;10.90;99.90;;;;;;4992016;28;20383;-67
2022/05/05 02:41:10;;;;;;;0.40;0.30;;;11.00;99.90;;;;;;4992401;28;20422;-67
2022/05/05 02:43:36;;;;;;;0.40;0.30;;;10.80;99.90;;;;;;4991667;28;20425;-67
2022/05/05 02:46:02;;;;;;;0.40;0.30;;;10.90;99.90;;;;;;4991943;28;20422;-68
2022/05/05 02:48:30;;;;;;;0.40;0.20;;;10.90;99.90;;;;;;4991760;28;20394;-68
2022/05/05 02:50:56;;;;;;;0.40;0.30;;;10.90;99.90;;;;;;4992476;28;20394;-68
2022/05/05 02:56:06;;;;;;;0.40;0.20;;;10.80;99.90;;;;;;4992042;28;20433;-69
2022/05/05 02:58:32;;;;;;;0.40;0.20;;;10.90;99.90;;;;;;4991610;28;20470;-69
2022/05/05 03:00:58;;;;;;;0.40;0.20;;;10.90;99.90;;;;;;4988125;28;20448;-68
2022/05/05 03:03:23;;;;;;;0.40;0.20;;;11.00;99.90;;;;;;4954723;28;20423;-67
2022/05/05 03:05:49;;;;;;;0.40;0.20;;;11.00;99.90;;;;;;4972684;28;20415;-68
2022/05/05 03:08:15;;;;;;;0.40;0.20;;;10.80;99.90;;;;;;4972404;28;20376;-68
2022/05/05 03:10:40;;;;;;;0.40;0.30;;;10.60;99.90;;;;;;4972771;28;20443;-68
2022/05/05 03:13:06;;;;;;;0.40;0.30;;;10.70;99.90;;;;;;4972389;28;20396;-67
2022/05/05 03:15:32;;;;;;;0.40;0.30;;;10.70;99.90;;;;;;4971522;28;20381;-67
2022/05/05 03:17:57;;;;;;;0.40;0.20;;;10.80;99.90;;;;;;4972579;28;20396;-68
2022/05/05 03:20:23;;;;;;;0.40;0.20;;;10.70;99.90;;;;;;4990776;28;20518;-68
2022/05/05 03:22:49;;;;;;;0.40;0.20;;;10.80;99.90;;;;;;4992231;28;20410;-67
2022/05/05 03:25:15;;;;;;;0.40;0.30;;;10.70;99.90;;;;;;4991284;28;20401;-69
2022/05/05 03:27:40;;;;;;;0.40;0.20;;;10.80;99.90;;;;;;4991225;28;20390;-68
2022/05/05 03:30:07;;;;;;;0.40;0.20;;;10.90;99.90;;;;;;4991739;28;20394;-67
2022/05/05 03:32:33;;;;;;;0.40;0.20;;;10.90;99.90;;;;;;4991036;28;20704;-67
2022/05/05 03:34:59;;;;;;;0.40;0.20;;;10.80;99.90;;;;;;4991826;28;20383;-68
2022/05/05 03:37:28;;;;;;;0.40;0.20;;;10.60;99.90;;;;;;4989401;28;20401;-67
2022/05/05 03:39:54;;;;;;;0.40;0.20;;;10.80;99.90;;;;;;4991723;28;20921;-67
2022/05/05 03:42:19;;;;;;;0.40;0.20;;;10.80;99.90;;;;;;4990218;28;20391;-67
2022/05/05 03:44:45;;;;;;;0.40;0.20;;;10.80;99.90;;;;;;4991663;28;20383;-67
2022/05/05 03:47:10;;;;;;;0.40;0.20;;;10.90;99.90;;;;;;4991368;28;20942;-67
2022/05/05 03:49:37;;;;;;;0.40;0.20;;;10.80;99.90;;;;;;4986451;28;20400;-67
2022/05/05 03:52:03;;;;;;;0.40;0.20;;;10.80;99.90;;;;;;4972032;28;20497;-67
2022/05/05 03:54:29;;;;;;;0.40;0.40;;;10.70;99.90;;;;;;4971322;28;20496;-68
2022/05/05 03:56:54;;;;;;;0.40;0.20;;;10.80;99.90;;;;;;4991199;28;20497;-67
2022/05/05 03:59:22;;;;;;;0.70;0.60;;;10.80;99.90;;;;;;4990761;28;20412;-67
2022/05/05 04:01:48;;;;;;;1.20;0.90;;;10.90;99.90;;;;;;4991708;28;20394;-68
2022/05/05 04:04:14;;;;;;;0.40;0.20;;;10.90;99.90;;;;;;4973720;28;20386;-68
2022/05/05 04:06:39;;;;;;;0.40;0.40;;;10.90;99.90;;;;;;4990714;28;20452;-68
2022/05/05 04:09:05;;;;;;;0.40;0.20;;;10.90;99.90;;;;;;4991513;28;20418;-68
2022/05/05 04:11:31;;;;;;;0.40;0.40;;;11.00;99.90;;;;;;4990705;28;20397;-68
2022/05/05 04:13:56;;;;;;;0.40;0.20;;;11.00;99.90;;;;;;4991159;28;20390;-67
2022/05/05 04:16:22;;;;;;;0.40;0.20;;;11.00;99.90;;;;;;4990726;28;20949;-68
2022/05/05 04:18:48;;;;;;;0.40;0.40;;;11.10;99.90;;;;;;4988886;28;20399;-68
2022/05/05 04:21:13;;;;;;;0.80;0.80;;;11.10;99.90;;;;;;4998706;28;20408;-68
2022/05/05 04:23:39;;;;;;;0.40;0.30;;;11.00;99.90;;;;;;4994354;28;20394;-68
2022/05/05 04:26:05;;;;;;;0.40;0.40;;;11.10;99.90;;;;;;5000140;28;20840;-68
2022/05/05 04:28:31;;;;;;;0.50;0.50;;;11.20;99.90;;;;;;4998423;28;20869;-67
2022/05/05 04:30:57;;;;;;;0.40;0.30;;;11.20;99.90;;;;;;4999972;28;20392;-67
2022/05/05 04:33:23;;;;;;;0.40;0.30;;;11.10;99.90;;;;;;4997600;28;20991;-67
2022/05/05 04:35:49;;;;;;;0.40;0.20;;;11.20;99.90;;;;;;4998496;28;20389;-67
2022/05/05 04:38:15;;;;;;;0.40;0.20;;;11.30;99.90;;;;;;4995805;28;20388;-68
2022/05/05 04:40:41;;;;;;;0.40;0.20;;;11.30;99.90;;;;;;4995262;28;20423;-67
2022/05/05 04:43:07;;;;;;;0.40;0.20;;;11.20;99.90;;;;;;4990479;28;20388;-67
2022/05/05 04:45:32;;;;;;;0.40;0.20;;;11.20;99.90;;;;;;4996738;28;20406;-68
2022/05/05 04:47:58;;;;;;;0.40;0.20;;;11.20;99.90;;;;;;4991804;28;20449;-68
2022/05/05 04:50:24;;;;;;;0.40;0.30;;;11.20;99.90;;;;;;4984103;28;20495;-68
2022/05/05 04:52:51;;;;;;;1.40;1.10;;;11.30;99.90;;;;;;4990868;28;20390;-68
2022/05/05 04:55:17;;;;;;;0.40;0.20;;;11.30;99.90;;;;;;4976590;28;20457;-68
2022/05/05 04:57:42;;;;;;;0.40;0.20;;;11.40;99.90;;;;;;4993187;28;20423;-69
2022/05/05 05:00:09;;;;;;;0.47;0.40;;;11.30;99.90;;;;;;4994594;28;20469;-68
2022/05/05 05:02:35;;;;;;;0.50;0.50;;;11.30;99.90;;;;;;4997200;28;20411;-68
2022/05/05 05:05:01;;;;;;;0.50;0.50;;;11.30;99.90;;;;;;4994046;28;20747;-68
2022/05/05 05:07:27;;;;;;;0.40;0.20;;;11.30;99.90;;;;;;4993093;28;20405;-67
2022/05/05 05:09:52;;;;;;;0.53;0.47;;;11.30;99.90;;;;;;4994325;28;20402;-68
2022/05/05 05:12:18;;;;;;;0.40;0.20;;;11.30;99.90;;;;;;4993888;28;20448;-68
2022/05/05 05:14:43;;;;;;;0.40;0.20;;;11.30;99.90;;;;;;4993284;28;20567;-68
2022/05/05 05:17:09;;;;;;;0.40;0.20;;;11.20;99.90;;;;;;4992577;28;20601;-67
2022/05/05 05:19:35;;;;;;;1.30;0.80;;;11.20;99.90;;;;;;4992170;28;20402;-68
2022/05/05 05:22:00;;;;;;;0.70;0.50;;;11.20;99.90;;;;;;4994895;28;20402;-68
2022/05/05 05:24:26;;;;;;;0.40;0.30;;;11.30;99.90;;;;;;5012635;28;20403;-67
2022/05/05 05:26:52;;;;;;;0.40;0.20;;;11.30;99.90;;;;;;4994339;28;20382;-68
2022/05/05 05:29:17;;;;;;;0.40;0.20;;;11.40;99.90;;;;;;4993167;28;20473;-67
2022/05/05 05:31:43;;;;;;;0.40;0.20;;;11.30;99.90;;;;;;4997859;28;21143;-68
2022/05/05 05:34:08;;;;;;;0.40;0.30;;;11.40;99.90;;;;;;4998378;28;20406;-68
2022/05/05 05:36:34;;;;;;;0.40;0.30;;;11.50;99.90;;;;;;4992925;28;20389;-68
2022/05/05 05:39:00;;;;;;;0.40;0.30;;;11.40;99.90;;;;;;4993634;28;20490;-68
2022/05/05 05:41:26;;;;;;;0.40;0.30;;;11.50;99.90;;;;;;4994952;28;20426;-68
2022/05/05 05:43:51;;;;;;;0.90;0.50;;;11.50;99.90;;;;;;4992672;28;20395;-67
2022/05/05 05:46:17;;;;;;;0.40;0.20;;;11.50;99.90;;;;;;4992666;28;20402;-67
2022/05/05 05:48:42;;;;;;;0.40;0.30;;;11.40;99.90;;;;;;5005760;28;20492;-68
2022/05/05 05:51:08;;;;;;;1.80;1.00;;;11.50;99.90;;;;;;5006510;28;20884;-68
2022/05/05 05:53:34;;;;;;;0.40;0.20;;;11.50;99.90;;;;;;5011838;28;20904;-68
2022/05/05 05:55:59;;;;;;;0.40;0.30;;;11.50;99.90;;;;;;5000061;28;20484;-68
2022/05/05 05:58:25;;;;;;;0.40;0.40;;;11.60;99.90;;;;;;4978925;28;20394;-68
2022/05/05 06:00:51;;;;;;;0.40;0.20;;;11.50;99.90;;;;;;5006416;28;20447;-67
2022/05/05 06:06:02;;;;;;;0.40;0.30;;;11.50;99.90;;;;;;4977191;28;20425;-68
2022/05/05 06:08:27;;;;;;;0.40;0.32;;;11.50;99.90;;;;;;4993414;28;20466;-67
2022/05/05 06:10:54;;;;;;;0.40;0.20;;;11.60;99.90;;;;;;5007954;28;20423;-68
2022/05/05 06:13:19;;;;;;;0.40;0.28;;;11.60;99.90;;;;;;4991708;28;20863;-68
2022/05/05 06:15:45;;;;;;;1.00;0.80;;;11.60;99.90;;;;;;4992648;28;20421;-68
2022/05/05 06:18:11;;;;;;;0.40;0.30;;;11.60;99.90;;;;;;4992039;28;20445;-68
2022/05/05 06:20:37;;;;;;;0.45;0.38;;;11.70;99.90;;;;;;4991234;28;20513;-68
2022/05/05 06:23:03;;;;;;;0.40;0.30;;;11.60;99.90;;;;;;4992176;28;20391;-68
2022/05/05 06:25:28;;;;;;;0.40;0.30;;;11.80;99.90;;;;;;4991368;28;20927;-68
2022/05/05 06:27:57;;;;;;;0.40;0.20;;;11.70;99.90;;;;;;4992085;28;20401;-68
2022/05/05 06:30:23;;;;;;;0.40;0.20;;;11.70;99.90;;;;;;4993164;28;20481;-68
2022/05/05 06:32:49;;;;;;;0.40;0.20;;;11.80;99.90;;;;;;4991098;28;20402;-68
2022/05/05 06:35:14;;;;;;;0.40;0.20;;;11.70;99.90;;;;;;4992924;28;20390;-68
2022/05/05 06:37:40;;;;;;;0.40;0.20;;;11.70;99.90;;;;;;4991091;28;20410;-67
2022/05/05 06:40:07;;;;;;;0.40;0.20;;;11.70;99.90;;;;;;5002786;28;20426;-67
2022/05/05 06:42:33;;;;;;;0.40;0.20;;;11.80;99.90;;;;;;4991493;28;20508;-68
2022/05/05 06:44:59;;;;;;;0.40;0.30;;;11.80;99.90;;;;;;4995982;28;20899;-68
2022/05/05 06:47:25;;;;;;;0.40;0.40;;;11.90;99.90;;;;;;4991490;28;20425;-68
2022/05/05 06:49:52;;;;;;;0.40;0.30;;;11.90;99.90;;;;;;4991790;28;20835;-68
2022/05/05 06:52:17;;;;;;;0.90;0.90;;;11.90;99.90;;;;;;4991972;28;20397;-68
2022/05/05 06:54:43;;;;;;;0.40;0.40;;;11.80;99.90;;;;;;4992114;28;20756;-67
2022/05/05 06:57:09;;;;;;;0.40;0.30;;;11.90;99.90;;;;;;4994645;28;20401;-68
2022/05/05 06:59:35;;;;;;;0.40;0.30;;;11.90;99.90;;;;;;4990674;28;20406;-69
2022/05/05 07:02:02;;;;;;;0.40;0.20;;;11.90;99.90;;;;;;4991400;28;20482;-69
2022/05/05 07:07:19;;;;;;;0.40;0.20;;;11.80;99.90;;;;;;4991646;28;21041;-69
2022/05/05 07:12:31;;;;;;;0.40;0.20;;;11.80;99.90;;;;;;4991259;28;20548;-68
2022/05/05 07:14:58;;;;;;;1.10;0.70;;;12.00;99.90;;;;;;4991942;28;20382;-68
2022/05/05 07:17:24;;;;;;;0.40;0.20;;;11.90;99.90;;;;;;4990548;28;20414;-68
2022/05/05 07:19:50;;;;;;;0.40;0.30;;;12.00;99.90;;;;;;4990173;28;20410;-68
2022/05/05 07:22:16;;;;;;;0.70;0.70;;;12.10;99.90;;;;;;4991700;28;20399;-68
2022/05/05 07:24:42;;;;;;;0.40;0.40;;;12.20;99.90;;;;;;4990689;28;20505;-68
2022/05/05 07:27:09;;;;;;;0.40;0.20;;;12.20;99.90;;;;;;4990839;28;20403;-68
2022/05/05 07:29:34;;;;;;;0.40;0.20;;;12.30;99.90;;;;;;5007924;28;20431;-68
2022/05/05 07:32:00;;;;;;;0.40;0.30;;;12.20;99.90;;;;;;5002055;28;20398;-68
2022/05/05 07:34:26;;;;;;;0.40;0.20;;;12.40;99.90;;;;;;4991802;28;20391;-69
2022/05/05 07:36:52;;;;;;;0.40;0.20;;;12.50;99.90;;;;;;4991002;28;20398;-67
2022/05/05 07:39:18;;;;;;;0.40;0.20;;;12.60;99.90;;;;;;4991537;28;20751;-68
2022/05/05 07:41:44;;;;;;;0.70;0.70;;;12.50;99.90;;;;;;4990311;28;20422;-68
2022/05/05 07:44:10;;;;;;;0.40;0.30;;;12.50;99.90;;;;;;4995240;28;20400;-67
2022/05/05 07:46:36;;;;;;;0.40;0.20;;;12.60;99.90;;;;;;5008813;28;20479;-67
2022/05/05 07:49:04;;;;;;;0.50;0.50;;;12.40;99.90;;;;;;4995248;28;20392;-67
2022/05/05 07:51:31;;;;;;;0.70;0.70;;;12.40;99.90;;;;;;4999625;28;20405;-67
2022/05/05 07:56:42;;;;;;;0.40;0.20;;;12.40;99.90;;;;;;4984134;28;20447;-67
2022/05/05 07:59:08;;;;;;;0.40;0.20;;;12.50;99.90;;;;;;4977505;28;20430;-68
2022/05/05 08:01:33;;;;;;;0.40;0.30;;;12.50;99.90;;;;;;4962965;28;20426;-68
2022/05/05 08:03:59;;;;;;;0.80;0.80;;;12.50;99.90;;;;;;4962270;28;20416;-68
2022/05/05 08:06:25;;;;;;;2.30;1.40;;;12.10;99.90;;;;;;4963590;28;20484;-68
2022/05/05 08:08:51;;;;;;;0.60;0.60;;;12.30;99.90;;;;;;4963864;28;20469;-68
2022/05/05 08:11:17;;;;;;;0.50;0.50;;;12.20;99.90;;;;;;4960885;28;20386;-68
2022/05/05 08:13:42;;;;;;;0.60;0.50;;;12.20;99.90;;;;;;4969449;28;20511;-67
2022/05/05 08:16:08;;;;;;;0.40;0.30;;;12.10;99.90;;;;;;4965061;28;20926;-68
2022/05/05 08:18:34;;;;;;;0.40;0.20;;;12.20;99.90;;;;;;4962912;28;20426;-68
2022/05/05 08:21:00;;;;;;;0.40;0.20;;;12.20;99.90;;;;;;4968942;28;20925;-68
2022/05/05 08:23:26;;;;;;;0.40;0.30;;;12.30;99.90;;;;;;4969356;28;20400;-68
2022/05/05 08:28:38;;;;;;;0.60;0.60;;;12.10;99.90;;;;;;4970097;28;20752;-68
2022/05/05 08:31:04;;;;;;;0.40;0.20;;;11.90;99.90;;;;;;4972402;28;20406;-68
2022/05/05 08:33:30;;;;;;;0.40;0.20;;;12.00;99.90;;;;;;4965928;28;20444;-68
2022/05/05 08:35:58;;;;;;;0.40;0.20;;;11.90;99.90;;;;;;4966128;28;20398;-69
2022/05/05 08:38:24;;;;;;;0.40;0.20;;;11.90;99.90;;;;;;4968001;28;20474;-69
2022/05/05 08:40:50;;;;;;;0.40;0.25;;;11.90;99.90;;;;;;4965167;28;20412;-68
2022/05/05 08:43:17;;;;;;;0.40;0.30;;;12.00;99.90;;;;;;4974005;28;20396;-68
2022/05/05 08:45:45;;;;;;;0.40;0.20;;;12.00;99.90;;;;;;4987070;28;20396;-68
2022/05/05 08:48:12;;;;;;;0.70;0.70;;;11.90;99.90;;;;;;4969096;28;20425;-69
2022/05/05 08:50:40;;;;;;;0.40;0.30;;;11.90;99.90;;;;;;4964918;28;20396;-69
2022/05/05 08:53:07;;;;;;;0.40;0.40;;;12.00;99.90;;;;;;4964592;28;20400;-68
2022/05/05 08:55:34;;;;;;;0.40;0.40;;;11.90;99.90;;;;;;4968618;28;20513;-68
2022/05/05 08:58:01;;;;;;;0.40;0.25;;;11.90;99.90;;;;;;4987108;28;20386;-69
2022/05/05 09:00:27;;;;;;;0.40;0.20;;;11.90;99.90;;;;;;4981373;28;20474;-68
2022/05/05 09:02:58;;;;;;;0.40;0.30;;;12.00;99.90;;;;;;4984625;28;20599;-68
2022/05/05 09:05:42;;;;;;;0.40;0.30;;;12.00;99.90;;;;;;4991929;28;20459;-69
2022/05/05 09:08:12;;;;;;;0.40;0.30;;;11.90;99.90;;;;;;4994411;28;20464;-68
2022/05/05 09:10:50;;;;;;;0.50;0.50;;;11.80;99.90;;;;;;4990048;28;20406;-68
2022/05/05 09:13:24;;;;;;;0.40;0.20;;;11.70;99.90;;;;;;4990151;28;20402;-68
2022/05/05 09:15:50;;;;;;;0.40;0.20;;;11.80;99.90;;;;;;4983918;28;20489;-69
2022/05/05 09:18:19;;;;;;;0.60;0.50;;;11.70;99.90;;;;;;4992275;28;20409;-68
2022/05/05 09:20:46;;;;;;;0.40;0.20;;;11.60;99.90;;;;;;4996282;28;20418;-69
2022/05/05 09:23:27;;;;;;;0.50;0.40;;;11.60;99.90;;;;;;4987609;28;20404;-68
2022/05/05 09:25:52;;;;;;;1.10;0.80;;;11.60;99.90;;;;;;4987694;28;20414;-68
2022/05/05 09:28:20;;;;;;;0.80;0.80;;;11.60;99.90;;;;;;4996862;28;20406;-69
2022/05/05 09:30:51;;;;;;;0.70;0.70;;;11.60;99.90;;;;;;4992751;28;20422;-68
2022/05/05 09:33:35;;;;;;;0.40;0.20;;;11.70;99.90;;;;;;4976520;28;20391;-68
2022/05/05 09:36:06;;;;;;;0.40;0.20;;;11.60;99.90;;;;;;4973606;28;20468;-68
2022/05/05 09:38:51;;;;;;;0.40;0.20;;;11.70;99.90;;;;;;4992275;28;20397;-68
2022/05/05 09:41:18;;;;;;;0.70;0.70;;;11.70;99.90;;;;;;5012044;28;20409;-69
2022/05/05 09:43:44;;;;;;;0.40;0.40;;;11.70;99.90;;;;;;4992963;28;20497;-69
2022/05/05 09:46:25;;;;;;;0.40;0.30;;;11.80;99.90;;;;;;4988996;28;20490;-69
2022/05/05 09:49:12;;;;;;;0.50;0.50;;;11.90;99.90;;;;;;4988989;28;20409;-69
2022/05/05 09:57:39;;;;;;;0.40;0.20;;;11.90;99.90;;;;;;4989466;28;20457;-69
2022/05/05 09:57:43;;;;;;;0.45;0.45;;;11.90;99.90;;;;;;4958367;28;20760;-69
2022/05/05 10:05:43;;;;;;;0.70;0.70;;;11.80;99.90;;;;;;4968783;28;20425;-71
2022/05/05 10:08:09;;;;;;;0.50;0.50;;;11.80;99.90;;;;;;4963760;28;20550;-70
2022/05/05 10:10:37;;;;;;;0.40;0.20;;;11.60;99.90;;;;;;4970006;28;20400;-69
2022/05/05 10:13:04;;;;;;;0.40;0.30;;;11.70;99.90;;;;;;4965860;28;20416;-68
2022/05/05 10:15:32;;;;;;;1.30;1.20;;;11.90;99.90;;;;;;4969673;28;20482;-69
2022/05/05 10:18:02;;;;;;;1.50;0.50;;;11.90;99.90;;;;;;4964513;28;21052;-69
2022/05/05 10:20:29;;;;;;;0.40;0.20;;;11.80;99.90;;;;;;4950541;28;20880;-68
2022/05/05 10:23:02;;;;;;;0.90;0.70;;;11.80;99.90;;;;;;4967779;28;20392;-68
2022/05/05 10:25:32;;;;;;;0.40;0.20;;;12.00;99.90;;;;;;4967753;28;20847;-68
2022/05/05 10:27:59;;;;;;;0.40;0.20;;;11.90;99.90;;;;;;4966203;28;20880;-68
2022/05/05 10:30:35;;;;;;;0.43;0.32;;;11.90;99.90;;;;;;4968539;28;20495;-68
2022/05/05 10:33:08;;;;;;;0.40;0.20;;;12.00;99.90;;;;;;4968989;28;20480;-69
2022/05/05 10:35:53;;;;;;;0.40;0.20;;;11.90;99.90;;;;;;4969317;28;20388;-69
2022/05/05 10:38:42;;;;;;;0.60;0.60;;;11.90;99.90;;;;;;4971798;28;20391;-69
2022/05/05 10:41:39;;;;;;;0.40;0.30;;;12.10;99.90;;;;;;4969508;28;20430;-68
2022/05/05 10:44:19;;;;;;;0.40;0.20;;;12.00;99.90;;;;;;4959256;28;20405;-69
2022/05/05 10:46:58;;;;;;;0.40;0.20;;;12.00;99.90;;;;;;4963633;28;20834;-68
2022/05/05 10:49:41;;;;;;;0.40;0.30;;;11.90;99.90;;;;;;4967973;28;20435;-69
2022/05/05 10:52:16;;;;;;;0.40;0.20;;;11.70;99.90;;;;;;4968855;28;20411;-69
2022/05/05 10:54:48;;;;;;;0.60;0.60;;;11.80;99.90;;;;;;4968762;28;20440;-69
2022/05/05 10:57:26;;;;;;;0.40;0.40;;;11.80;99.90;;;;;;4982458;28;20495;-69
2022/05/05 11:00:19;;;;;;;0.40;0.30;;;11.80;99.90;;;;;;4976939;28;20883;-68
2022/05/05 11:03:00;;;;;;;0.40;0.35;;;11.80;99.90;;;;;;4979133;28;20478;-68
2022/05/05 11:05:27;;;;;;;0.40;0.30;;;12.00;99.90;;;;;;4976742;28;20400;-69
2022/05/05 11:07:54;;;;;;;0.40;0.20;;;11.80;99.90;;;;;;4979690;28;20396;-69
2022/05/05 11:13:45;;;;;;;0.40;0.20;;;11.80;99.90;;;;;;4968574;28;20406;-69
2022/05/05 11:22:08;;;;;;;0.40;0.30;;;11.80;99.90;;;;;;4977110;28;20400;-69
2022/05/05 11:24:35;;;;;;;0.40;0.30;;;11.70;99.90;;;;;;4971247;28;20436;-69
2022/05/05 11:27:01;;;;;;;0.40;0.20;;;11.70;99.90;;;;;;4952873;28;20498;-69
2022/05/05 11:29:32;;;;;;;0.40;0.30;;;11.70;99.90;;;;;;4971439;28;20391;-69
2022/05/05 11:32:02;;;;;;;0.60;0.60;;;11.60;99.90;;;;;;4970480;28;20493;-69
2022/05/05 11:34:36;;;;;;;0.40;0.40;;;11.70;99.90;;;;;;4972788;28;20415;-69
2022/05/05 11:37:03;;;;;;;0.60;0.60;;;11.70;99.90;;;;;;4970160;28;20395;-69
2022/05/05 11:39:33;;;;;;;0.80;0.80;;;11.60;99.90;;;;;;4971454;28;20427;-68
2022/05/05 11:42:07;;;;;;;0.40;0.20;;;11.60;99.90;;;;;;4965720;28;21048;-68
2022/05/05 11:44:37;;;;;;;1.60;1.50;;;11.70;99.90;;;;;;4966315;28;20769;-67
2022/05/05 11:47:32;;;;;;;0.40;0.30;;;11.80;99.90;;;;;;4969089;28;20399;-69
2022/05/05 11:49:59;;;;;;;0.40;0.20;;;11.70;99.90;;;;;;4959083;28;20428;-68
2022/05/05 11:52:26;;;;;;;0.60;0.60;;;11.80;99.90;;;;;;4970679;28;20488;-69
2022/05/05 11:54:54;;;;;;;0.70;0.70;;;11.80;99.90;;;;;;4967027;28;20427;-69
2022/05/05 11:57:39;;;;;;;0.40;0.25;;;12.00;99.90;;;;;;4981369;28;20745;-70
2022/05/05 12:02:51;;;;;;;1.10;1.00;;;12.00;99.90;;;;;;4978777;28;20470;-69
2022/05/05 12:05:21;;;;;;;0.80;0.60;;;12.00;99.90;;;;;;4979931;28;20755;-70
2022/05/05 12:07:46;;;;;;;0.90;0.80;;;12.10;99.90;;;;;;4972306;28;20894;-69
2022/05/05 12:10:16;;;;;;;0.70;0.70;;;12.10;99.90;;;;;;4986857;28;20386;-70
2022/05/05 12:12:46;;;;;;;1.50;1.20;;;12.10;99.90;;;;;;4983689;28;20487;-69
2022/05/05 12:15:14;;;;;;;1.10;1.00;;;12.10;99.90;;;;;;4983569;28;20390;-69
2022/05/05 12:17:46;;;;;;;0.50;0.40;;;12.10;99.90;;;;;;4982766;28;20387;-69
2022/05/05 12:20:13;;;;;;;1.20;0.60;;;12.10;99.90;;;;;;4988426;28;20497;-69
2022/05/05 12:22:41;;;;;;;0.60;0.60;;;12.10;99.90;;;;;;4983541;28;20398;-69
2022/05/05 12:25:14;;;;;;;0.40;0.40;;;12.20;99.90;;;;;;4981388;28;20538;-69
2022/05/05 12:27:40;;;;;;;0.47;0.47;;;12.30;99.90;;;;;;4986423;28;20792;-68
2022/05/05 12:30:07;;;;;;;4.50;1.40;;;12.30;99.90;;;;;;4983937;28;20403;-69
2022/05/05 12:32:33;;;;;;;0.40;0.20;;;12.20;99.90;;;;;;4982763;28;20803;-70
2022/05/05 12:35:11;;;;;;;0.40;0.20;;;12.20;99.90;;;;;;4983105;28;20398;-68
2022/05/05 12:37:37;;;;;;;0.40;0.20;;;12.10;99.90;;;;;;4980628;28;20429;-70
2022/05/05 12:40:05;;;;;;;0.40;0.20;;;12.10;99.90;;;;;;4973082;28;21319;-70
2022/05/05 12:42:47;;;;;;;2.00;1.00;;;12.20;99.90;;;;;;4979772;28;20456;-69
2022/05/05 12:45:15;;;;;;;0.80;0.80;;;12.10;99.90;;;;;;4971622;28;20392;-69
2022/05/05 12:47:46;;;;;;;1.20;1.20;;;12.20;99.90;;;;;;4971088;28;20864;-69
2022/05/05 12:50:32;;;;;;;0.40;0.20;;;12.20;99.90;;;;;;4971556;28;20392;-70
2022/05/05 13:01:39;;;;;;;0.40;0.40;;;12.30;99.90;;;;;;4987618;28;20461;-70
2022/05/05 13:04:14;;;;;;;0.40;0.40;;;12.20;99.90;;;;;;4989293;28;20758;-71
2022/05/05 13:06:42;;;;;;;0.50;0.50;;;12.30;99.90;;;;;;4983008;28;20902;-70
2022/05/05 13:09:09;;;;;;;0.80;0.80;;;12.30;99.90;;;;;;4982153;28;20391;-70
2022/05/05 13:11:40;;;;;;;0.40;0.20;;;12.30;99.90;;;;;;4988229;28;20392;-70
2022/05/05 13:14:07;;;;;;;1.50;1.40;;;12.30;99.90;;;;;;4982326;28;20415;-71
2022/05/05 13:16:34;;;;;;;0.70;0.60;;;12.30;99.90;;;;;;4997248;28;20749;-71
2022/05/05 13:19:02;;;;;;;0.40;0.40;;;12.30;99.90;;;;;;5013205;28;20397;-70
2022/05/05 13:21:28;;;;;;;0.40;0.30;;;12.30;99.90;;;;;;5011240;28;20483;-70
2022/05/05 13:23:55;;;;;;;0.40;0.20;;;12.40;99.90;;;;;;5000975;28;20396;-70
2022/05/05 13:26:21;;;;;;;0.77;0.77;;;12.40;99.90;;;;;;5013454;28;20896;-70
2022/05/05 13:28:47;;;;;;;0.70;0.70;;;12.30;99.90;;;;;;4998584;28;20386;-70
2022/05/05 13:31:12;;;;;;;0.50;0.50;;;12.30;99.90;;;;;;4991480;28;20393;-70
2022/05/05 13:33:38;;;;;;;0.40;0.30;;;12.40;99.90;;;;;;4987521;28;20414;-70
2022/05/05 13:36:04;;;;;;;1.90;0.90;;;12.30;99.90;;;;;;4993117;28;20386;-69
2022/05/05 13:38:30;;;;;;;0.40;0.40;;;12.30;99.90;;;;;;4993574;28;20766;-69
2022/05/05 13:40:56;;;;;;;1.10;1.00;;;12.30;99.90;;;;;;4999351;28;20422;-70
2022/05/05 13:43:22;;;;;;;0.80;0.80;;;12.40;99.90;;;;;;4987203;28;20738;-70
2022/05/05 13:45:48;;;;;;;0.40;0.28;;;12.40;99.90;;;;;;4983608;28;20477;-69
2022/05/05 13:48:14;;;;;;;0.40;0.20;;;12.40;99.90;;;;;;4983673;28;20468;-70
2022/05/05 13:50:40;;;;;;;0.40;0.30;;;12.50;99.90;;;;;;4988213;28;20398;-70